Nielsville, Minnesota
Current Conditions -  °F | °C
As of 7:14 AM on Thursday 27 Nov 2014 (Local Time) from KCKN Reporting Station
Clear Clear  
Wind Chill: -27°   Ceiling: Unl
Heat Index: -15°   Visibility: 10mi
Dew Point: -20°   Wind: 5mph
Humidity: 77%   Direction: 180°S
Pressure: 30.53"   Gusts: NA
Location:  47.53°N, 96.82°W
Report Text: KCKN 271314Z AUTO 18004KT 10SM CLR M26/M29 A3053 RMK AO2
Loading
Personal Weather Stations






























Interactive Weather Map New forecast layout! Learn more

10-Day Weather Forecast

Advertisements
Track Severe Weather on mobile